Latest Weather Observations for Batchelor

IDD60801

Issued at 10:01 pm CST Sunday 14 February 2016 (issued every 30 minutes, with the page automatically refreshed every 10 minutes)

About weather observations | Map of weather stations | Latest weather observations for NT | Other Formats
Station Details ID: 014272 Name: BATCHELOR AIRPORT Lat: -13.05 Lon: 131.03 Height: 104.0 m
Data from the previous 72 hours. | See also: Recent months at Batchelor
Date/Time
CST
Temp
°C
App
Temp
°C
Dew
Point
Rel
Hum
%
Delta-T
°C
Wind Press
QNH
hPa
Press
MSL
hPa
Rain
since 9 am
mm
Dir
 
Spd
km/h
Gust
km/h
Spd
kts
Gust
kts
14/10:00pm 22.6 25.5 21.1 91 1.0 WNW 7 13 4 7 1011.2 1010.5 5.2
14/09:30pm 22.9 26.0 21.4 91 1.0 WSW 7 13 4 7 1012.3 1011.6 5.2
14/09:00pm 22.8 25.8 21.3 91 1.0 N 7 11 4 6 1011.5 1010.8 5.2
14/08:30pm 22.8 24.3 21.3 91 1.0 NE 15 28 8 15 1011.3 1010.6 4.0
14/08:00pm 23.0 21.1 21.3 90 1.1 ENE 33 54 18 29 1012.6 1011.9 2.2
14/07:42pm 25.2 24.3 21.5 80 2.5 ENE 28 54 15 29 1011.7 1011.0 0.0
14/07:34pm 26.7 28.4 21.7 74 3.3 E 15 39 8 21 1011.3 1010.6 0.0
14/07:30pm 26.8 28.8 21.6 73 3.5 E 13 28 7 15 1010.6 1009.9 0.0
14/07:16pm 27.3 29.7 20.9 68 4.2 NW 9 32 5 17 1009.8 1009.1 0.0
14/07:00pm 27.2 29.6 20.0 64 4.7 W 7 13 4 7 1007.8 1007.1 0.0
14/06:30pm 27.1 29.8 20.2 66 4.5 W 6 9 3 5 1007.6 1006.9 0.0
14/06:00pm 27.4 29.5 20.2 65 4.7 W 9 15 5 8 1006.4 1005.7 0.0
14/05:30pm 27.7 30.1 20.8 66 4.6 W 9 15 5 8 1006.5 1005.8 0.0
14/05:00pm 27.9 30.5 20.5 64 4.9 W 7 9 4 5 1006.4 1005.7 0.0
14/04:30pm 28.2 31.0 21.5 67 4.5 W 9 19 5 10 1006.2 1005.5 0.0
14/04:00pm 29.8 33.9 22.3 64 5.1 SW 4 9 2 5 1005.9 1005.1 0.0
14/03:30pm 30.6 33.0 22.2 61 5.7 WSW 13 26 7 14 1006.3 1005.6 0.0
14/03:00pm 35.1 39.1 25.0 56 7.2 WNW 13 22 7 12 1006.7 1006.0 0.0
14/02:30pm 34.7 39.4 24.9 56 7.0 WNW 9 15 5 8 1007.2 1006.5 0.0
14/02:00pm 35.0 38.8 24.0 53 7.7 WNW 11 20 6 11 1007.5 1006.8 0.0
14/01:30pm 35.4 40.5 25.6 57 7.0 WNW 9 17 5 9 1007.7 1007.0 0.0
14/01:00pm 34.7 38.3 23.7 52 7.7 W 11 17 6 9 1008.0 1007.3 0.0
14/12:30pm 34.5 38.1 23.8 53 7.5 WNW 11 17 6 9 1008.2 1007.5 0.0
14/12:00pm 34.1 37.8 23.2 53 7.6 WSW 9 17 5 9 1008.9 1008.2 0.0
14/11:30am 33.8 37.8 23.8 56 7.0 W 9 17 5 9 1009.3 1008.6 0.0
14/11:00am 33.2 37.4 24.1 59 6.4 W 9 15 5 8 1009.6 1008.9 0.0
14/10:30am 32.6 36.6 23.8 59 6.2 SW 9 15 5 8 1009.7 1009.0 0.0
14/10:00am 31.7 37.0 25.3 69 4.5 WSW 7 13 4 7 1009.9 1009.2 0.0
14/09:30am 30.8 36.4 25.8 74 3.6 W 7 13 4 7 1009.6 1008.9 0.0
14/09:00am 29.7 35.3 26.3 82 2.4 W 9 15 5 8 1009.6 1008.9 0.0
14/08:30am 28.5 34.1 25.5 84 2.1 W 6 9 3 5 1009.3 1008.6 0.0
14/08:00am 27.6 33.3 25.6 89 1.4 WSW 6 9 3 5 1009.1 1008.4 0.0
14/07:30am 26.7 32.6 25.3 92 1.0 WSW 4 6 2 3 1008.8 1008.1 0.0
14/07:00am 26.4 32.0 25.4 94 0.7 W 6 9 3 5 1008.2 1007.5 0.0
14/06:30am 25.7 30.8 24.7 94 0.7 W 6 9 3 5 1008.0 1007.3 0.0
14/06:00am 25.7 31.2 24.7 94 0.7 W 4 6 2 3 1008.1 1007.4 0.0
14/05:30am 25.6 30.9 24.4 93 0.8 W 4 6 2 3 1007.8 1007.1 0.0
14/05:00am 25.6 31.2 24.2 92 1.0 W 2 4 1 2 1007.7 1007.0 0.0
14/04:30am 25.9 31.3 24.5 92 1.0 W 4 6 2 3 1007.6 1006.9 0.0
14/04:00am 25.5 31.1 23.6 89 1.3 CALM 0 0 0 0 1007.5 1006.8 0.0
14/03:30am 25.4 30.3 23.1 87 1.6 WSW 2 2 1 1 1007.6 1006.9 0.0
14/03:00am 25.5 29.9 22.8 85 1.8 WSW 4 4 2 2 1007.6 1006.9 0.0
14/02:30am 25.5 29.7 22.4 83 2.1 WSW 4 6 2 3 1008.0 1007.3 0.0
14/02:00am 25.5 29.2 22.2 82 2.2 WSW 6 7 3 4 1008.3 1007.6 0.0
14/01:30am 25.6 29.1 21.9 80 2.5 WSW 6 7 3 4 1008.8 1008.1 0.0
14/01:00am 25.6 29.0 21.7 79 2.6 WSW 6 7 3 4 1009.3 1008.6 0.0
14/12:30am 26.0 29.4 21.7 77 2.9 W 6 9 3 5 1009.7 1009.0 0.0
14/12:00am 26.0 30.0 22.1 79 2.6 W 4 6 2 3 1009.9 1009.2 0.0
 
Date/Time
CST
Temp
°C
App
Temp
°C
Dew
Point
Rel
Hum
%
Delta-T
°C
Wind Press
QNH
hPa
Press
MSL
hPa
Rain
since 9 am
mm
Dir
 
Spd
km/h
Gust
km/h
Spd
kts
Gust
kts
13/11:30pm 26.2 30.3 22.3 79 2.6 W 4 6 2 3 1009.9 1009.2 0.0
13/11:00pm 26.4 31.0 22.5 79 2.6 W 2 4 1 2 1009.8 1009.1 0.0
13/10:30pm 26.8 30.5 22.2 76 3.1 W 6 9 3 5 1009.7 1009.0 0.0
13/10:00pm 27.3 30.9 22.3 74 3.4 W 7 11 4 6 1009.6 1008.9 0.0
13/09:30pm 27.3 31.6 23.3 79 2.7 NW 6 7 3 4 1009.2 1008.5 0.0
13/09:00pm 27.9 32.3 23.5 77 3.0 WNW 6 7 3 4 1009.2 1008.5 0.0
13/08:30pm 28.3 32.7 23.4 75 3.4 WNW 6 9 3 5 1009.1 1008.4 0.0
13/08:00pm 28.6 32.3 22.6 70 4.1 WNW 7 11 4 6 1009.0 1008.3 0.0
13/07:30pm 29.4 32.1 22.1 65 5.0 W 11 19 6 10 1008.5 1007.8 0.0
13/07:00pm 29.8 33.5 23.3 68 4.5 WNW 9 13 5 7 1008.0 1007.3 0.0
13/06:30pm 30.7 34.8 23.9 67 4.7 NW 9 13 5 7 1007.5 1006.8 0.0
13/06:00pm 32.0 36.2 24.8 65 5.1 WNW 11 19 6 10 1007.4 1006.7 0.0
13/05:30pm 35.1 38.9 20.2 41 10.0 CALM 0 0 0 0 1006.8 1006.1 0.0
13/05:00pm 35.3 38.6 20.0 40 10.2 ESE 2 7 1 4 1006.9 1006.2 0.0
13/04:30pm 35.6 38.1 19.1 38 11.0 S 4 6 2 3 1006.9 1006.2 0.0
13/04:00pm 35.8 38.4 19.3 38 11.0 ESE 4 6 2 3 1007.1 1006.4 0.0
13/03:30pm 35.2 38.9 21.5 45 9.4 W 4 7 2 4 1007.1 1006.4 0.0
13/03:00pm 34.6 37.6 20.9 44 9.3 ESE 6 9 3 5 1007.3 1006.6 0.0
13/02:30pm 34.6 37.8 21.3 46 9.1 SE 6 11 3 6 1007.4 1006.7 0.0
13/02:00pm 34.1 36.9 20.5 45 9.1 ESE 6 7 3 4 1007.5 1006.8 0.0
13/01:30pm 34.3 38.5 22.4 50 8.2 SSE 4 6 2 3 1007.9 1007.2 0.0
13/01:00pm 34.0 37.5 21.8 49 8.3 NW 6 9 3 5 1008.3 1007.6 0.0
13/12:30pm 33.6 36.4 20.4 46 8.9 SE 6 13 3 7 1008.9 1008.2 0.0
13/12:00pm 33.2 37.4 23.2 55 6.9 S 6 9 3 5 1009.2 1008.5 0.0
13/11:30am 33.0 38.1 25.0 63 5.7 SW 7 15 4 8 1009.5 1008.8 0.0
13/11:00am 32.0 36.9 24.6 65 5.2 WSW 7 13 4 7 1009.8 1009.1 0.0
13/10:30am 31.7 36.5 25.1 68 4.7 SW 9 17 5 9 1010.2 1009.5 0.0
13/10:00am 31.2 36.0 25.1 70 4.3 SW 9 15 5 8 1010.4 1009.7 0.0
13/09:30am 30.4 36.1 25.9 77 3.2 SW 7 13 4 7 1010.5 1009.8 0.0
13/09:00am 30.1 35.9 26.1 79 2.9 SW 7 13 4 7 1010.7 1010.0 0.0
13/08:30am 29.4 35.2 26.0 82 2.4 S 7 11 4 6 1010.7 1010.0 0.0
13/08:00am 28.9 35.8 26.3 86 1.9 S 2 6 1 3 1010.4 1009.7 0.0
13/07:30am 27.7 34.1 26.1 91 1.1 S 4 6 2 3 1010.1 1009.4 0.0
13/07:00am 26.6 32.7 25.6 94 0.7 WSW 4 6 2 3 1009.3 1008.6 0.0
13/06:30am 26.3 32.6 25.3 94 0.7 WSW 2 4 1 2 1008.9 1008.2 0.0
13/06:00am 26.3 32.4 25.1 93 0.8 WSW 2 2 1 1 1008.2 1007.5 0.0
13/05:30am 26.5 32.6 25.1 92 1.0 WSW 2 4 1 2 1008.2 1007.5 0.0
13/05:00am 27.0 33.6 25.2 90 1.3 CALM 0 0 0 0 1008.1 1007.4 0.0
13/04:30am 26.9 33.0 25.1 90 1.3 WSW 2 4 1 2 1007.9 1007.2 0.0
13/04:00am 26.9 32.7 25.1 90 1.3 WSW 4 4 2 2 1007.4 1006.7 0.0
13/03:30am 27.0 32.3 25.0 89 1.4 WSW 6 7 3 4 1007.3 1006.6 0.0
13/03:00am 26.8 32.0 24.8 89 1.4 WSW 6 6 3 3 1007.2 1006.5 0.0
13/02:30am 26.9 32.3 24.5 87 1.7 WSW 4 7 2 4 1007.8 1007.1 0.0
13/02:00am 27.0 32.4 24.5 86 1.7 WSW 4 6 2 3 1008.1 1007.4 0.0
13/01:30am 27.0 32.4 24.5 86 1.7 WSW 4 6 2 3 1008.3 1007.6 0.0
13/01:00am 26.9 32.1 24.2 85 1.9 WSW 4 4 2 2 1008.6 1007.9 0.0
13/12:30am 26.8 31.9 24.1 85 1.9 WSW 4 6 2 3 1008.9 1008.2 0.0
13/12:00am 26.8 31.6 24.1 85 1.9 W 6 7 3 4 1009.1 1008.4 0.0
 
Date/Time
CST
Temp
°C
App
Temp
°C
Dew
Point
Rel
Hum
%
Delta-T
°C
Wind Press
QNH
hPa
Press
MSL
hPa
Rain
since 9 am
mm
Dir
 
Spd
km/h
Gust
km/h
Spd
kts
Gust
kts
12/11:30pm 26.8 31.5 23.9 84 2.0 W 6 6 3 3 1009.3 1008.6 0.0
12/11:00pm 26.9 31.9 23.8 83 2.1 WNW 4 7 2 4 1009.2 1008.5 0.0
12/10:30pm 26.9 32.0 24.0 84 2.0 W 4 6 2 3 1009.1 1008.4 0.0
12/10:00pm 26.9 32.0 24.0 84 2.0 W 4 4 2 2 1009.0 1008.3 0.0
12/09:30pm 27.2 31.9 23.9 82 2.3 WSW 6 9 3 5 1009.1 1008.4 0.0
12/09:00pm 27.3 31.8 23.7 81 2.5 NW 6 9 3 5 1008.6 1007.9 0.0
12/08:30pm 27.9 32.8 23.7 78 2.9 SW 4 11 2 6 1008.3 1007.6 0.0
12/08:00pm 27.8 32.2 23.4 77 3.0 W 6 7 3 4 1007.6 1006.9 0.0
12/07:30pm 28.2 33.4 23.6 76 3.2 NW 2 7 1 4 1007.4 1006.7 0.0
12/07:00pm 28.4 32.8 23.5 75 3.4 WNW 6 9 3 5 1006.9 1006.2 0.0
12/06:30pm 28.7 33.2 23.6 74 3.5 W 6 9 3 5 1006.8 1006.1 0.0
12/06:00pm 29.0 32.8 24.1 75 3.4 WNW 11 15 6 8 1006.4 1005.7 0.0
12/05:30pm 31.9 37.5 24.2 63 5.4 NE 2 15 1 8 1006.0 1005.2 0.0
12/05:00pm 32.9 37.1 22.4 54 7.2 ENE 4 6 2 3 1005.9 1005.1 0.0
12/04:30pm 33.3 36.8 21.8 51 7.9 E 6 13 3 7 1005.4 1004.6 0.0
12/04:00pm 33.5 36.4 21.0 48 8.4 E 7 13 4 7 1005.5 1004.7 0.0
12/03:30pm 34.0 38.2 23.4 54 7.4 E 7 15 4 8 1006.2 1005.5 0.0
12/03:00pm 33.9 37.5 22.3 50 8.0 ESE 7 17 4 9 1006.3 1005.6 0.0
12/02:30pm 34.1 38.5 23.5 54 7.4 S 6 11 3 6 1006.5 1005.8 0.0
12/02:00pm 33.3 36.9 22.4 52 7.5 SE 7 11 4 6 1006.8 1006.1 0.0
12/01:30pm 33.3 38.1 24.2 59 6.4 SSE 6 13 3 7 1007.4 1006.7 0.0
12/01:00pm 32.3 36.7 23.5 59 6.1 SE 6 9 3 5 1007.8 1007.1 0.0
12/12:30pm 32.3 36.5 22.4 56 6.8 SW 4 11 2 6 1008.2 1007.5 0.0
12/12:00pm 32.2 37.2 23.2 59 6.2 WSW 2 6 1 3 1008.7 1008.0 0.0
12/11:30am 31.3 36.0 23.4 63 5.5 NNE 4 9 2 5 1009.0 1008.3 0.0
12/11:00am 30.9 35.7 23.5 64 5.1 NNW 4 7 2 4 1009.2 1008.5 0.0
12/10:30am 30.1 34.4 23.3 67 4.7 NNE 6 9 3 5 1009.5 1008.8 0.0
12/10:00am 29.4 33.7 22.6 67 4.6 ENE 4 7 2 4 1009.9 1009.2 0.0
12/09:30am 28.9 32.6 22.6 69 4.3 E 7 9 4 5 1010.2 1009.5 0.0
12/09:00am 28.4 31.5 22.9 72 3.8 ENE 11 15 6 8 1010.2 1009.5 0.0
12/08:30am 27.7 31.8 23.3 77 3.0 E 7 9 4 5 1009.8 1009.1 0.0
12/08:00am 26.6 30.9 23.3 82 2.3 ESE 6 7 3 4 1009.4 1008.7 0.0
12/07:30am 25.0 29.3 22.7 87 1.6 NE 4 4 2 2 1009.2 1008.5 0.0
12/07:00am 24.1 29.2 22.7 92 0.9 CALM 0 4 0 2 1008.9 1008.2 0.0
12/06:30am 24.2 29.1 22.3 89 1.3 CALM 0 0 0 0 1008.9 1008.2 0.0
12/06:00am 24.2 29.3 22.6 91 1.1 CALM 0 2 0 1 1008.7 1008.0 0.0
12/05:30am 24.2 29.1 22.3 89 1.3 CALM 0 0 0 0 1008.2 1007.5 0.0
12/05:00am 24.5 28.1 22.0 86 1.7 E 6 9 3 5 1007.9 1007.2 0.0
12/04:30am 24.9 28.7 22.4 86 1.7 E 6 9 3 5 1008.1 1007.4 0.0
12/04:00am 24.8 29.3 22.9 89 1.3 WSW 4 6 2 3 1007.6 1006.9 0.0
12/03:30am 24.8 30.1 23.0 90 1.2 CALM 0 0 0 0 1007.3 1006.6 0.0
12/03:00am 24.8 30.2 23.2 91 1.1 CALM 0 0 0 0 1007.3 1006.6 0.0
12/02:30am 24.4 29.4 22.5 89 1.3 CALM 0 0 0 0 1007.4 1006.7 0.0
12/02:00am 24.4 28.8 22.1 87 1.5 W 2 4 1 2 1007.4 1006.7 0.0
12/01:30am 24.3 28.4 22.2 88 1.4 W 4 6 2 3 1007.8 1007.1 0.0
12/01:00am 24.4 28.0 22.1 87 1.5 WSW 6 9 3 5 1007.9 1007.2 0.0
12/12:30am 24.8 28.8 22.1 85 1.8 WNW 4 6 2 3 1008.2 1007.5 0.0
12/12:00am 24.8 28.0 21.7 83 2.1 WNW 7 11 4 6 1008.2 1007.5 0.0
 
Date/Time
CST
Temp
°C
App
Temp
°C
Dew
Point
Rel
Hum
%
Delta-T
°C
Wind Press
QNH
hPa
Press
MSL
hPa
Rain
since 9 am
mm
Dir
 
Spd
km/h
Gust
km/h
Spd
kts
Gust
kts
11/11:30pm 24.5 28.6 21.6 84 1.9 NW 2 4 1 2 1008.6 1007.9 0.0
11/11:00pm 24.8 29.1 21.1 80 2.4 CALM 0 4 0 2 1008.7 1008.0 0.0
11/10:30pm 24.6 27.8 21.3 82 2.2 WNW 6 7 3 4 1008.5 1007.8 0.0

Other Formats:

Comma delimited format used in spreadsheet applications
http://www.bom.gov.au/fwo/IDD60801/IDD60801.94125.axf

JavaScript Object Notation format (JSON) in row-major order
http://www.bom.gov.au/fwo/IDD60801/IDD60801.94125.json